Time;durP1;ratioP1;P1;durP2;ratioP2;P2;SDS_P1;SDS_P2;PMS_P1;PMS_P2;Temp;Humidity;BMP_temperature;BMP_pressure;BME280_temperature;BME280_humidity;BME280_pressure;Samples;Min_cycle;Max_cycle;Signal;HPM_P1;HPM_P2
2022/06/22 00:01:18;;;;;;;2.80;2.60;;;;;;;15.31;100.00;96627.34;5029433;28;20753;-69
2022/06/22 00:03:49;;;;;;;2.80;2.60;;;;;;;15.40;100.00;96620.63;5036264;28;21480;-67
2022/06/22 00:06:25;;;;;;;2.40;2.30;;;;;;;15.42;100.00;96636.41;5042359;28;20280;-66
2022/06/22 00:08:53;;;;;;;2.93;2.73;;;;;;;15.47;100.00;96626.66;5013419;28;20930;-67
2022/06/22 00:11:22;;;;;;;2.67;2.50;;;;;;;15.57;100.00;96625.31;5043686;28;20250;-68
2022/06/22 00:13:52;;;;;;;2.67;2.47;;;;;;;15.58;100.00;96626.94;5040167;28;20343;-67
2022/06/22 00:16:25;;;;;;;2.53;2.40;;;;;;;15.59;100.00;96624.03;5044542;28;20222;-66
2022/06/22 00:18:54;;;;;;;2.73;2.63;;;;;;;15.62;100.00;96612.88;5022426;28;20218;-69
2022/06/22 00:21:26;;;;;;;2.60;2.47;;;;;;;15.73;100.00;96613.16;5042277;28;20203;-68
2022/06/22 00:23:56;;;;;;;2.33;2.23;;;;;;;15.67;100.00;96614.88;5012766;28;21581;-67
2022/06/22 00:26:34;;;;;;;2.20;2.10;;;;;;;15.63;100.00;96608.38;5038996;28;20644;-70
2022/06/22 00:29:20;;;;;;;2.40;2.30;;;;;;;15.70;100.00;96610.91;5037311;28;20214;-67
2022/06/22 00:32:15;;;;;;;2.40;2.30;;;;;;;15.61;100.00;96603.25;5033023;28;20234;-67
2022/06/22 00:34:43;;;;;;;2.40;2.20;;;;;;;15.61;100.00;96611.25;5025984;28;20230;-66
2022/06/22 00:37:18;;;;;;;2.27;2.17;;;;;;;15.61;100.00;96608.59;5041138;28;20284;-67
2022/06/22 00:39:48;;;;;;;3.03;2.83;;;;;;;15.64;100.00;96610.00;5009143;28;20217;-65
2022/06/22 00:42:34;;;;;;;2.23;2.13;;;;;;;15.53;100.00;96605.44;5044275;28;20195;-68
2022/06/22 00:45:06;;;;;;;3.33;3.13;;;;;;;15.63;100.00;96606.50;5043242;28;20270;-66
2022/06/22 00:47:36;;;;;;;2.67;2.47;;;;;;;15.64;100.00;96615.34;5042686;28;20203;-66
2022/06/22 00:50:11;;;;;;;2.40;2.30;;;;;;;15.53;100.00;96611.59;5036737;28;20207;-68
2022/06/22 00:52:43;;;;;;;2.43;2.20;;;;;;;15.40;100.00;96607.28;5043058;28;20239;-67
2022/06/22 00:55:23;;;;;;;2.50;2.40;;;;;;;15.42;100.00;96615.06;5013968;28;20986;-67
2022/06/22 00:57:58;;;;;;;3.40;2.40;;;;;;;15.40;100.00;96604.59;5034519;28;20919;-66
2022/06/22 01:00:28;;;;;;;3.17;2.73;;;;;;;15.33;100.00;96612.69;5034021;28;20211;-67
2022/06/22 01:02:59;;;;;;;2.87;2.77;;;;;;;15.28;100.00;96614.44;5029793;28;20278;-66
2022/06/22 01:05:32;;;;;;;2.60;2.40;;;;;;;15.23;100.00;96603.66;5044936;28;20227;-65
2022/06/22 01:08:10;;;;;;;2.40;2.30;;;;;;;15.24;100.00;96605.28;5031898;28;20296;-67
2022/06/22 01:10:43;;;;;;;2.73;2.53;;;;;;;15.08;100.00;96614.72;5047386;28;20234;-67
2022/06/22 01:13:14;;;;;;;2.40;2.30;;;;;;;14.98;100.00;96607.28;5005870;28;20316;-67
2022/06/22 01:15:48;;;;;;;2.50;2.40;;;;;;;14.82;100.00;96590.03;5047280;28;20226;-66
2022/06/22 01:18:21;;;;;;;3.30;3.20;;;;;;;14.82;100.00;96587.38;5041572;28;20208;-68
2022/06/22 01:20:55;;;;;;;2.50;2.40;;;;;;;14.70;100.00;96581.97;5043700;28;20290;-65
2022/06/22 01:24:02;;;;;;;2.50;2.40;;;;;;;14.72;100.00;96577.25;5024610;28;21253;-68
2022/06/22 01:27:05;;;;;;;2.40;2.30;;;;;;;14.66;100.00;96567.44;5025442;28;20272;-68
2022/06/22 01:29:35;;;;;;;2.63;2.43;;;;;;;14.70;100.00;96566.81;4991828;28;20346;-68
2022/06/22 01:32:06;;;;;;;3.73;2.23;;;;;;;14.61;100.00;96552.94;5041657;28;20275;-67
2022/06/22 01:34:38;;;;;;;2.50;2.40;;;;;;;14.54;100.00;96540.72;5045325;28;20707;-64
2022/06/22 01:37:26;;;;;;;2.87;2.77;;;;;;;14.30;100.00;96533.44;5041146;28;20327;-67
2022/06/22 01:39:59;;;;;;;2.70;2.50;;;;;;;14.24;100.00;96529.00;5023662;28;20238;-67
2022/06/22 01:42:32;;;;;;;3.40;3.10;;;;;;;14.48;100.00;96543.25;5045485;28;20191;-65
2022/06/22 01:45:04;;;;;;;3.10;2.90;;;;;;;14.53;100.00;96541.78;5010628;28;20336;-67
2022/06/22 01:47:40;;;;;;;2.93;2.73;;;;;;;14.43;100.00;96556.44;5045573;28;20231;-67
2022/06/22 01:50:15;;;;;;;3.00;2.80;;;;;;;14.33;100.00;96556.97;5042010;28;20832;-67
2022/06/22 01:53:03;;;;;;;3.33;3.13;;;;;;;14.19;100.00;96548.31;5043081;28;20493;-69
2022/06/22 01:55:45;;;;;;;2.90;2.80;;;;;;;14.05;100.00;96536.19;5012750;28;20219;-67
2022/06/22 01:58:33;;;;;;;2.70;2.60;;;;;;;14.12;100.00;96526.28;5039537;28;20337;-65
2022/06/22 02:01:11;;;;;;;3.10;2.90;;;;;;;14.01;100.00;96540.34;5002785;28;20235;-66
2022/06/22 02:03:43;;;;;;;3.03;2.90;;;;;;;14.08;100.00;96533.09;5040479;28;20336;-66
2022/06/22 02:09:00;;;;;;;3.40;3.13;;;;;;;14.22;100.00;96546.28;5045569;28;20950;-66
2022/06/22 02:11:33;;;;;;;3.50;3.30;;;;;;;14.22;100.00;96549.75;5027589;28;20718;-68
2022/06/22 02:14:04;;;;;;;3.20;2.97;;;;;;;14.32;100.00;96554.56;5043863;28;20207;-66
2022/06/22 02:16:38;;;;;;;3.10;2.90;;;;;;;14.38;100.00;96548.31;5008662;28;20215;-66
2022/06/22 02:19:13;;;;;;;2.93;2.83;;;;;;;14.26;100.00;96548.25;5045522;28;20709;-66
2022/06/22 02:21:44;;;;;;;3.17;2.90;;;;;;;14.30;100.00;96559.28;5040883;28;20202;-66
2022/06/22 02:24:15;;;;;;;3.43;3.23;;;;;;;14.38;100.00;96561.66;5044285;28;20219;-65
2022/06/22 02:26:47;;;;;;;2.90;2.50;;;;;;;14.38;100.00;96552.81;5021351;28;20231;-66
2022/06/22 02:29:17;;;;;;;2.77;2.67;;;;;;;14.31;100.00;96543.06;5040982;28;20936;-67
2022/06/22 02:31:47;;;;;;;3.00;2.90;;;;;;;14.16;100.00;96548.78;5006082;28;20230;-65
2022/06/22 02:34:17;;;;;;;3.00;2.80;;;;;;;14.21;100.00;96549.97;5039895;28;20226;-65
2022/06/22 02:36:47;;;;;;;2.93;2.83;;;;;;;14.14;100.00;96564.16;5046052;28;20255;-68
2022/06/22 02:39:16;;;;;;;2.97;2.77;;;;;;;14.08;100.00;96559.72;5046131;28;20237;-67
2022/06/22 02:44:34;;;;;;;2.67;2.57;;;;;;;13.91;100.00;96558.69;5043208;28;20593;-67
2022/06/22 02:47:18;;;;;;;3.53;2.80;;;;;;;13.86;100.00;96557.50;5013328;28;21754;-66
2022/06/22 02:49:50;;;;;;;2.87;2.67;;;;;;;13.79;100.00;96558.59;5023639;28;21578;-64
2022/06/22 02:52:19;;;;;;;3.17;2.97;;;;;;;13.74;100.00;96559.25;5044168;28;20207;-69
2022/06/22 02:54:50;;;;;;;3.10;2.90;;;;;;;13.60;100.00;96556.72;5039674;28;20223;-67
2022/06/22 02:57:29;;;;;;;3.40;3.00;;;;;;;13.49;100.00;96552.13;5025454;28;20222;-66
2022/06/22 02:59:58;;;;;;;3.40;3.10;;;;;;;13.50;100.00;96540.44;5036892;28;20905;-68
2022/06/22 03:02:28;;;;;;;3.37;3.17;;;;;;;13.44;100.00;96543.94;5034955;28;20383;-67
2022/06/22 03:04:59;;;;;;;2.73;2.63;;;;;;;13.40;100.00;96545.38;4991158;28;20571;-66
2022/06/22 03:07:29;;;;;;;3.50;3.30;;;;;;;13.51;100.00;96549.22;5004018;28;20242;-65
2022/06/22 03:09:58;;;;;;;3.13;2.87;;;;;;;13.53;100.00;96539.16;5032968;28;20222;-66
2022/06/22 03:12:26;;;;;;;3.30;3.20;;;;;;;13.44;100.00;96534.13;4994800;28;20203;-67
2022/06/22 03:14:58;;;;;;;3.57;3.27;;;;;;;13.43;100.00;96529.00;5039421;28;20254;-67
2022/06/22 03:17:31;;;;;;;6.07;3.07;;;;;;;13.39;100.00;96523.31;5025339;28;20211;-66
2022/06/22 03:20:03;;;;;;;3.67;3.37;;;;;;;13.55;100.00;96532.59;5042092;28;20274;-67
2022/06/22 03:22:35;;;;;;;3.03;2.93;;;;;;;13.63;100.00;96542.13;4995721;28;20224;-64
2022/06/22 03:25:08;;;;;;;3.47;3.27;;;;;;;13.65;100.00;96547.25;5035689;28;20416;-65
2022/06/22 03:27:39;;;;;;;3.07;2.93;;;;;;;13.60;100.00;96542.59;5024083;28;20995;-64
2022/06/22 03:30:14;;;;;;;4.30;3.93;;;;;;;13.63;100.00;96533.34;5034631;28;20803;-65
2022/06/22 03:32:46;;;;;;;3.97;3.40;;;;;;;13.54;100.00;96533.66;5015638;28;20313;-66
2022/06/22 03:35:18;;;;;;;3.40;3.20;;;;;;;13.56;100.00;96534.25;5043282;28;20268;-66
2022/06/22 03:37:48;;;;;;;3.67;3.47;;;;;;;13.58;100.00;96537.50;4996698;28;20215;-66
2022/06/22 03:40:21;;;;;;;4.60;3.63;;;;;;;13.51;100.00;96543.91;5038695;28;20203;-64
2022/06/22 03:42:52;;;;;;;3.63;3.33;;;;;;;13.52;100.00;96548.19;5024149;28;20442;-65
2022/06/22 03:45:24;;;;;;;4.17;3.57;;;;;;;13.63;100.00;96549.31;5039339;28;20710;-65
2022/06/22 03:47:58;;;;;;;4.07;3.73;;;;;;;13.60;100.00;96547.91;5024913;28;20563;-67
2022/06/22 03:50:35;;;;;;;3.17;2.97;;;;;;;13.63;100.00;96542.13;5037219;28;20203;-67
2022/06/22 03:53:07;;;;;;;3.80;3.50;;;;;;;13.60;100.00;96542.59;4997288;28;20217;-66
2022/06/22 03:55:38;;;;;;;4.07;3.77;;;;;;;13.66;100.00;96546.22;5042775;28;20232;-65
2022/06/22 03:58:08;;;;;;;5.33;3.60;;;;;;;13.72;100.00;96550.66;4998615;28;20891;-67
2022/06/22 04:00:36;;;;;;;3.60;3.40;;;;;;;13.74;100.00;96552.09;5040318;28;20292;-66
2022/06/22 04:03:07;;;;;;;5.67;3.67;;;;;;;13.58;100.00;96553.47;5014768;28;20773;-67
2022/06/22 04:05:42;;;;;;;3.73;3.53;;;;;;;13.64;100.00;96551.78;5040135;28;20226;-66
2022/06/22 04:08:16;;;;;;;3.43;3.27;;;;;;;13.69;100.00;96562.59;4994702;28;20747;-66
2022/06/22 04:10:49;;;;;;;4.33;3.97;;;;;;;13.89;100.00;96586.34;5038115;28;20620;-66
2022/06/22 04:13:20;;;;;;;3.30;3.00;;;;;;;14.11;100.00;96588.59;5024468;28;20388;-65
2022/06/22 04:15:53;;;;;;;3.77;3.47;;;;;;;14.21;100.00;96588.06;5040011;28;20284;-66
2022/06/22 04:18:24;;;;;;;4.27;3.97;;;;;;;14.18;100.00;96594.66;5043376;28;20204;-66
2022/06/22 04:20:54;;;;;;;3.40;3.03;;;;;;;14.25;100.00;96583.13;5019374;28;20238;-66
2022/06/22 04:23:28;;;;;;;4.60;4.23;;;;;;;14.35;100.00;96582.59;4993363;28;20607;-67
2022/06/22 04:25:59;;;;;;;3.83;3.47;;;;;;;14.41;100.00;96571.84;5039851;28;20739;-65
2022/06/22 04:28:30;;;;;;;3.77;3.40;;;;;;;14.68;100.00;96576.88;5020623;28;20242;-66
2022/06/22 04:31:00;;;;;;;4.13;3.93;;;;;;;15.10;100.00;96569.97;5000284;28;20353;-67
2022/06/22 04:33:33;;;;;;;4.53;4.13;;;;;;;15.39;100.00;96564.81;5021752;28;20271;-65
2022/06/22 04:36:04;;;;;;;3.50;3.30;;;;;;;15.45;100.00;96567.34;4983816;28;20461;-63
2022/06/22 04:38:37;;;;;;;3.20;2.93;;;;;;;15.49;100.00;96562.38;5002760;28;20523;-64
2022/06/22 04:41:31;;;;;;;3.73;3.10;;;;;;;15.65;100.00;96565.41;5024988;28;20202;-68
2022/06/22 04:44:01;;;;;;;3.53;3.33;;;;;;;15.60;100.00;96563.44;5044524;28;20602;-66
2022/06/22 04:46:31;;;;;;;4.73;4.43;;;;;;;15.66;100.00;96583.03;5025265;28;20622;-65
2022/06/22 04:49:05;;;;;;;4.23;3.80;;;;;;;15.65;100.00;96584.09;5020962;28;20253;-67
2022/06/22 04:51:36;;;;;;;6.13;3.67;;;;;;;15.73;100.00;96573.09;5018911;28;20665;-65
2022/06/22 04:54:14;;;;;;;2.93;2.83;;;;;;;15.75;100.00;96574.47;4984349;28;20312;-65
2022/06/22 04:56:46;;;;;;;3.30;3.10;;;;;;;15.88;100.00;96573.44;5036552;28;20838;-66
2022/06/22 04:59:15;;;;;;;2.77;2.67;;;;;;;15.66;100.00;96561.69;5043901;28;20455;-65
2022/06/22 05:01:46;;;;;;;3.23;3.03;;;;;;;15.68;100.00;96563.09;5023783;28;20653;-63
2022/06/22 05:04:22;;;;;;;3.70;3.40;;;;;;;15.53;100.00;96568.88;5020419;28;20262;-63
2022/06/22 05:06:57;;;;;;;4.43;3.30;;;;;;;15.68;100.00;96567.59;5017568;28;20207;-64
2022/06/22 05:09:30;;;;;;;3.40;3.20;;;;;;;15.56;100.00;96573.75;5020852;28;20417;-65
2022/06/22 05:11:58;;;;;;;3.20;3.10;;;;;;;15.81;100.00;96564.72;4962582;28;20556;-67
2022/06/22 05:14:28;;;;;;;3.43;3.23;;;;;;;16.02;100.00;96573.19;5025072;28;20321;-66
2022/06/22 05:16:59;;;;;;;2.93;2.73;;;;;;;16.26;100.00;96575.84;5040324;28;20855;-66
2022/06/22 05:19:32;;;;;;;2.93;2.73;;;;;;;16.31;100.00;96587.47;5015224;28;20230;-65
2022/06/22 05:22:00;;;;;;;4.43;2.43;;;;;;;16.73;100.00;96585.63;5039530;28;20316;-63
2022/06/22 05:24:32;;;;;;;3.67;3.40;;;;;;;16.99;100.00;96592.28;5042081;28;20855;-64
2022/06/22 05:27:02;;;;;;;3.03;2.93;;;;;;;17.09;100.00;96585.47;4996984;28;20653;-64
2022/06/22 05:29:33;;;;;;;4.10;2.97;;;;;;;17.38;100.00;96577.41;5045659;28;20258;-64
2022/06/22 05:32:03;;;;;;;2.87;2.67;;;;;;;17.40;100.00;96572.63;5045095;28;20285;-65
2022/06/22 05:34:36;;;;;;;5.87;3.90;;;;;;;17.30;100.00;96568.72;4989054;28;20308;-64
2022/06/22 05:37:08;;;;;;;4.40;3.43;;;;;;;17.59;100.00;96571.31;5043696;28;20202;-67
2022/06/22 05:39:37;;;;;;;3.17;2.67;;;;;;;17.62;100.00;96568.19;5045861;28;20195;-65
2022/06/22 05:42:06;;;;;;;3.40;3.10;;;;;;;17.43;100.00;96564.09;5002949;28;20430;-65
2022/06/22 05:44:34;;;;;;;3.43;3.10;;;;;;;17.56;100.00;96568.34;5048854;28;20296;-67
2022/06/22 05:47:04;;;;;;;3.10;3.00;;;;;;;17.68;100.00;96577.09;5043241;28;20206;-67
2022/06/22 05:49:36;;;;;;;2.83;2.63;;;;;;;18.07;100.00;96577.13;5023030;28;20261;-68
2022/06/22 05:52:11;;;;;;;3.30;3.13;;;;;;;18.62;100.00;96585.34;5038951;28;20286;-66
2022/06/22 05:54:42;;;;;;;7.03;3.63;;;;;;;19.19;100.00;96574.44;5039645;28;20782;-65
2022/06/22 05:57:16;;;;;;;3.33;3.03;;;;;;;19.38;100.00;96559.53;4994819;28;21282;-65
2022/06/22 05:59:47;;;;;;;2.90;2.70;;;;;;;19.45;100.00;96555.81;5037053;28;20319;-66
2022/06/22 06:02:22;;;;;;;4.07;3.67;;;;;;;19.56;100.00;96551.34;5037380;28;22056;-66
2022/06/22 06:04:56;;;;;;;4.90;3.33;;;;;;;19.41;100.00;96565.47;5039905;28;20223;-66
2022/06/22 06:07:31;;;;;;;2.97;2.77;;;;;;;19.48;100.00;96564.19;5033502;28;20363;-66
2022/06/22 06:10:01;;;;;;;2.83;2.60;;;;;;;18.95;100.00;96582.75;5041078;28;20514;-65
2022/06/22 06:12:32;;;;;;;2.90;2.80;;;;;;;19.14;100.00;96580.56;5041570;28;20707;-64
2022/06/22 06:15:02;;;;;;;3.47;3.27;;;;;;;19.05;100.00;96576.72;4999159;28;20282;-65
2022/06/22 06:17:33;;;;;;;3.50;3.17;;;;;;;18.77;100.00;96567.78;5043910;28;20214;-66
2022/06/22 06:20:05;;;;;;;3.60;3.30;;;;;;;19.04;100.00;96567.03;5030447;28;20737;-65
2022/06/22 06:22:35;;;;;;;2.90;2.70;;;;;;;19.02;100.00;96569.16;5039672;28;20946;-65
2022/06/22 06:27:59;;;;;;;2.40;2.30;;;;;;;18.97;100.00;96569.88;5038461;28;20273;-67
2022/06/22 06:30:31;;;;;;;3.37;3.10;;;;;;;19.27;100.00;96562.38;5001123;28;20345;-67
2022/06/22 06:33:04;;;;;;;10.83;3.43;;;;;;;19.36;100.00;96561.69;5041123;28;20226;-65
2022/06/22 06:35:37;;;;;;;3.27;2.97;;;;;;;19.53;100.00;96566.13;5042647;28;20364;-68
2022/06/22 06:38:16;;;;;;;3.60;3.30;;;;;;;19.83;100.00;96564.69;5025990;28;20290;-65
2022/06/22 06:40:47;;;;;;;4.07;3.27;;;;;;;19.95;100.00;96564.53;5041131;28;20235;-67
2022/06/22 06:43:32;;;;;;;3.90;3.13;;;;;;;20.18;99.66;96562.53;5038985;28;20940;-67
2022/06/22 06:46:01;;;;;;;6.67;3.17;;;;;;;20.24;97.73;96564.97;4998651;28;20564;-65
2022/06/22 06:48:30;;;;;;;3.87;3.43;;;;;;;20.19;98.15;96567.63;5039536;28;20269;-65
2022/06/22 06:51:00;;;;;;;4.23;3.17;;;;;;;20.56;98.57;96565.09;5043264;28;20230;-65
2022/06/22 06:53:30;;;;;;;8.47;2.80;;;;;;;20.51;91.38;96563.22;5026755;28;20783;-68
2022/06/22 06:56:01;;;;;;;4.97;3.97;;;;;;;20.49;96.83;96562.66;5036801;28;20243;-65
2022/06/22 06:58:37;;;;;;;3.50;3.23;;;;;;;20.66;99.14;96562.47;5043569;28;20258;-66
2022/06/22 07:01:06;;;;;;;5.93;3.53;;;;;;;20.94;96.76;96563.91;4998964;28;20234;-65
2022/06/22 07:03:37;;;;;;;2.73;2.53;;;;;;;21.10;96.60;96553.97;5041062;28;20448;-65
2022/06/22 07:06:07;;;;;;;3.20;3.10;;;;;;;20.63;95.71;96552.19;5038734;28;20306;-66
2022/06/22 07:08:38;;;;;;;4.67;4.00;;;;;;;20.91;93.33;96556.38;5028352;28;20371;-66
2022/06/22 07:11:14;;;;;;;3.23;3.03;;;;;;;20.84;94.38;96555.81;5033701;28;20260;-64
2022/06/22 07:13:47;;;;;;;3.63;3.33;;;;;;;21.14;93.69;96554.22;5040958;28;20279;-66
2022/06/22 07:16:19;;;;;;;3.40;3.10;;;;;;;21.01;97.86;96555.56;4999889;28;20448;-65
2022/06/22 07:18:50;;;;;;;3.47;3.27;;;;;;;21.61;89.64;96563.13;5041225;28;20199;-65
2022/06/22 07:21:25;;;;;;;3.40;3.20;;;;;;;21.84;85.85;96563.69;4990400;28;20763;-65
2022/06/22 07:23:56;;;;;;;2.70;2.50;;;;;;;21.64;89.68;96557.22;5042562;28;20215;-66
2022/06/22 07:26:31;;;;;;;3.60;3.30;;;;;;;21.74;91.88;96561.81;5041169;28;20284;-65
2022/06/22 07:29:02;;;;;;;3.43;3.17;;;;;;;21.54;95.32;96560.72;5028748;28;20530;-65
2022/06/22 07:31:35;;;;;;;3.50;3.30;;;;;;;21.21;97.57;96560.19;5039753;28;20591;-63
2022/06/22 07:34:08;;;;;;;3.43;3.13;;;;;;;21.55;95.80;96561.53;5040398;28;20214;-65
2022/06/22 07:36:41;;;;;;;3.50;3.30;;;;;;;21.33;94.82;96559.91;5000854;28;20388;-65
2022/06/22 07:39:13;;;;;;;2.90;2.70;;;;;;;21.37;98.18;96558.28;5043918;28;20203;-64
2022/06/22 07:41:42;;;;;;;3.23;3.03;;;;;;;21.55;97.94;96566.91;5041680;28;20198;-67
2022/06/22 07:44:15;;;;;;;3.53;3.33;;;;;;;21.44;94.77;96571.50;5026516;28;20695;-66
2022/06/22 07:46:46;;;;;;;3.33;3.13;;;;;;;21.10;98.63;96561.22;5036040;28;20422;-66
2022/06/22 07:49:17;;;;;;;3.70;3.40;;;;;;;21.23;97.35;96568.81;5039994;28;20633;-66
2022/06/22 07:51:50;;;;;;;3.57;3.27;;;;;;;21.61;95.30;96551.56;4994354;28;20341;-67
2022/06/22 07:54:22;;;;;;;3.93;3.50;;;;;;;21.30;98.63;96551.56;5041149;28;20226;-65
2022/06/22 07:56:58;;;;;;;3.17;2.97;;;;;;;21.70;93.35;96552.66;5042442;28;20302;-64
2022/06/22 07:59:29;;;;;;;3.47;3.20;;;;;;;22.08;87.91;96568.50;5025962;28;20654;-67
2022/06/22 08:02:07;;;;;;;4.30;3.90;;;;;;;22.20;88.61;96569.00;5040686;28;20213;-67
2022/06/22 08:04:38;;;;;;;3.67;3.37;;;;;;;21.74;92.32;96574.47;5044500;28;20221;-64
2022/06/22 08:07:10;;;;;;;3.57;3.20;;;;;;;22.12;92.33;96569.56;4998769;28;20199;-65
2022/06/22 08:09:42;;;;;;;3.87;3.20;;;;;;;22.27;93.64;96566.00;5042859;28;20493;-64
2022/06/22 08:12:13;;;;;;;3.23;3.07;;;;;;;22.29;92.50;96565.75;5042624;28;20720;-65
2022/06/22 08:14:43;;;;;;;2.90;2.73;;;;;;;22.57;92.08;96561.59;5027212;28;21327;-67
2022/06/22 08:17:16;;;;;;;3.10;2.90;;;;;;;22.76;90.38;96563.69;5040413;28;20781;-65
2022/06/22 08:19:44;;;;;;;4.13;3.73;;;;;;;22.80;91.35;96562.84;5040764;28;20206;-65
2022/06/22 08:22:13;;;;;;;3.43;3.23;;;;;;;22.80;91.48;96562.06;4998391;28;20206;-66
2022/06/22 08:24:47;;;;;;;4.50;3.70;;;;;;;22.82;91.55;96557.97;5036949;28;20323;-65
2022/06/22 08:27:18;;;;;;;4.10;3.40;;;;;;;23.05;91.34;96569.19;5039263;28;20231;-66
2022/06/22 08:29:48;;;;;;;5.60;3.70;;;;;;;23.20;86.77;96567.47;5037391;28;20340;-65
2022/06/22 08:32:20;;;;;;;4.00;3.53;;;;;;;23.25;88.93;96559.34;5025202;28;20615;-65
2022/06/22 08:34:53;;;;;;;3.60;3.40;;;;;;;23.84;84.76;96560.19;5040011;28;20314;-65
2022/06/22 08:37:28;;;;;;;3.60;3.30;;;;;;;24.24;75.41;96568.22;5009113;28;20198;-66
2022/06/22 08:40:00;;;;;;;3.50;3.20;;;;;;;25.05;70.17;96563.19;5032580;28;20757;-64
2022/06/22 08:42:38;;;;;;;3.40;3.10;;;;;;;25.21;69.00;96563.78;5028958;28;20253;-66
2022/06/22 08:45:39;;;;;;;3.37;3.17;;;;;;;25.15;66.64;96561.09;5036738;28;20692;-65
2022/06/22 08:48:23;;;;;;;4.23;3.23;;;;;;;25.29;68.84;96555.75;5031266;28;20423;-66
2022/06/22 08:51:01;;;;;;;3.33;3.13;;;;;;;25.95;63.65;96551.44;5033623;28;20234;-67
2022/06/22 08:53:46;;;;;;;3.50;3.20;;;;;;;25.93;66.56;96557.16;4994076;28;20211;-64
2022/06/22 08:56:30;;;;;;;4.33;3.97;;;;;;;26.05;63.55;96559.38;5033566;28;20674;-65
2022/06/22 08:59:09;;;;;;;3.83;3.53;;;;;;;26.24;61.88;96559.34;5031044;28;20767;-66
2022/06/22 09:01:43;;;;;;;4.40;3.07;;;;;;;26.16;60.55;96557.31;5021836;28;20867;-69
2022/06/22 09:04:33;;;;;;;3.67;3.27;;;;;;;26.01;64.87;96551.06;5035799;28;20397;-66
2022/06/22 09:07:23;;;;;;;3.23;3.03;;;;;;;26.15;66.94;96544.81;5037483;28;20767;-66
2022/06/22 09:10:14;;;;;;;4.40;3.83;;;;;;;26.08;65.95;96556.06;4993346;28;20223;-66
2022/06/22 09:12:53;;;;;;;3.73;3.40;;;;;;;26.21;66.19;96551.78;5035008;28;20227;-64
2022/06/22 09:15:36;;;;;;;3.90;3.60;;;;;;;26.13;68.46;96557.91;5035624;28;20230;-66
2022/06/22 09:18:22;;;;;;;3.73;3.43;;;;;;;25.87;68.53;96555.66;5025886;28;20590;-65
2022/06/22 09:21:08;;;;;;;4.83;4.40;;;;;;;25.67;69.20;96554.09;5036345;28;20526;-65
2022/06/22 09:23:41;;;;;;;4.00;3.70;;;;;;;25.91;68.85;96548.50;4993441;28;21512;-67
2022/06/22 09:26:17;;;;;;;4.17;3.87;;;;;;;26.43;65.38;96551.09;5037206;28;20223;-66
2022/06/22 09:28:57;;;;;;;6.80;3.70;;;;;;;26.65;61.99;96551.47;4990460;28;20703;-66
2022/06/22 09:32:15;;;;;;;4.83;3.67;;;;;;;26.65;64.96;96560.44;5035417;28;20610;-65
2022/06/22 09:35:09;;;;;;;4.83;4.37;;;;;;;26.38;63.79;96563.97;5024827;28;20867;-66
2022/06/22 09:37:47;;;;;;;3.80;3.50;;;;;;;26.85;63.19;96567.38;5039422;28;20225;-66
2022/06/22 09:40:26;;;;;;;5.43;3.93;;;;;;;26.79;62.22;96567.75;5023363;28;20946;-66
2022/06/22 09:43:10;;;;;;;3.50;3.10;;;;;;;26.92;59.95;96575.13;4994501;28;20310;-66
2022/06/22 09:46:10;;;;;;;7.57;3.93;;;;;;;27.19;60.00;96580.78;5024154;28;20342;-65
2022/06/22 09:49:01;;;;;;;4.10;3.67;;;;;;;27.13;61.16;96582.78;4997352;28;20436;-65
2022/06/22 09:51:48;;;;;;;5.20;3.80;;;;;;;27.23;61.80;96588.00;5027533;28;20286;-67
2022/06/22 09:57:38;;;;;;;3.90;3.20;;;;;;;27.43;62.52;96589.44;5020783;28;20202;-67
2022/06/22 10:00:09;;;;;;;4.20;3.80;;;;;;;27.66;56.37;96583.25;4987510;28;20773;-67
2022/06/22 10:03:11;;;;;;;4.17;3.77;;;;;;;27.49;65.05;96597.50;5023471;28;20207;-65
2022/06/22 10:05:55;;;;;;;3.93;3.60;;;;;;;27.36;61.45;96591.78;5023429;28;20222;-65
2022/06/22 10:08:37;;;;;;;4.63;4.30;;;;;;;26.62;69.14;96580.06;5024135;28;20632;-68
2022/06/22 10:11:15;;;;;;;5.07;3.60;;;;;;;26.41;74.54;96579.66;5006919;28;20225;-66
2022/06/22 10:14:14;;;;;;;3.73;3.37;;;;;;;27.03;71.29;96578.38;4980122;28;20252;-66
2022/06/22 10:17:10;;;;;;;4.57;3.37;;;;;;;26.92;72.04;96583.25;5019245;28;20700;-65
2022/06/22 10:19:52;;;;;;;5.13;3.60;;;;;;;26.98;73.68;96583.94;4990174;28;20204;-65
2022/06/22 10:22:33;;;;;;;4.07;3.67;;;;;;;27.06;69.78;96576.97;5025141;28;20201;-65
2022/06/22 10:25:13;;;;;;;4.37;3.80;;;;;;;27.19;67.62;96591.66;5006236;28;20312;-66
2022/06/22 10:27:57;;;;;;;4.63;3.83;;;;;;;26.85;74.08;96578.25;5019151;28;20208;-65
2022/06/22 10:30:31;;;;;;;4.40;3.97;;;;;;;26.75;73.18;96581.16;4979643;28;20226;-69
2022/06/22 10:33:27;;;;;;;5.43;4.00;;;;;;;26.33;78.58;96583.06;5022970;28;20435;-67
2022/06/22 10:36:20;;;;;;;4.23;3.77;;;;;;;26.13;77.68;96579.63;5008475;28;20228;-65
2022/06/22 10:38:59;;;;;;;4.43;4.03;;;;;;;25.69;89.05;96579.84;5020759;28;20501;-66
2022/06/22 10:47:35;;;;;;;6.20;4.17;;;;;;;25.10;100.00;96579.38;5035827;28;20426;-65
2022/06/22 10:50:14;;;;;;;4.93;4.30;;;;;;;24.85;100.00;96587.56;5044924;28;20289;-67
2022/06/22 10:53:39;;;;;;;5.20;4.00;;;;;;;24.68;98.61;96589.91;5045235;28;20196;-67
2022/06/22 10:56:18;;;;;;;4.97;4.00;;;;;;;24.49;100.00;96601.53;5044775;28;20284;-65
2022/06/22 10:59:06;;;;;;;5.77;5.20;;;;;;;23.80;100.00;96607.84;5031084;28;20351;-68
2022/06/22 11:02:03;;;;;;;6.00;4.47;;;;;;;23.10;100.00;96616.97;4995886;28;20628;-65
2022/06/22 11:05:03;;;;;;;5.30;4.77;;;;;;;22.80;100.00;96616.84;5032411;28;20537;-64
2022/06/22 11:07:53;;;;;;;5.83;4.83;;;;;;;22.80;100.00;96622.25;5038860;28;20298;-66
2022/06/22 11:10:45;;;;;;;5.77;5.00;;;;;;;22.58;100.00;96611.81;5038901;28;20295;-64
2022/06/22 11:13:29;;;;;;;5.80;5.20;;;;;;;22.63;100.00;96603.69;5033070;28;20648;-65
2022/06/22 11:16:11;;;;;;;5.77;5.30;;;;;;;23.04;100.00;96602.69;5042603;28;20366;-65
2022/06/22 11:19:11;;;;;;;5.30;4.80;;;;;;;23.37;100.00;96596.84;5006766;28;20605;-66
2022/06/22 11:21:48;;;;;;;8.23;6.20;;;;;;;23.46;100.00;96603.25;5041486;28;21509;-65
2022/06/22 11:24:44;;;;;;;7.23;6.13;;;;;;;23.24;100.00;96601.78;5041589;28;20690;-65
2022/06/22 11:33:48;;;;;;;5.30;4.90;;;;;;;23.93;100.00;96576.63;4988327;28;20301;-66
2022/06/22 11:36:26;;;;;;;7.33;6.03;;;;;;;24.31;100.00;96583.31;4978746;28;20236;-66
2022/06/22 11:39:43;;;;;;;6.13;5.57;;;;;;;24.87;100.00;96573.72;4976089;28;20221;-64
2022/06/22 11:42:38;;;;;;;5.53;5.07;;;;;;;25.86;100.00;96578.44;4982657;28;20292;-65
2022/06/22 11:48:54;;;;;;;4.97;4.57;;;;;;;26.63;100.00;96583.56;4978157;28;20202;-64
2022/06/22 11:51:39;;;;;;;6.73;5.03;;;;;;;26.88;100.00;96579.53;4938431;28;20218;-65
2022/06/22 11:54:24;;;;;;;5.73;4.67;;;;;;;26.67;100.00;96579.13;4977671;28;20319;-65
2022/06/22 11:57:06;;;;;;;4.60;4.13;;;;;;;26.88;100.00;96584.97;4977011;28;20580;-66
2022/06/22 11:59:52;;;;;;;5.00;4.30;;;;;;;26.47;100.00;96578.44;4977232;28;20352;-66
2022/06/22 12:02:36;;;;;;;4.43;4.03;;;;;;;26.78;99.39;96582.44;4976258;28;20316;-66
2022/06/22 12:05:19;;;;;;;5.07;4.67;;;;;;;26.82;100.00;96580.72;4934916;28;20973;-66
2022/06/22 12:08:01;;;;;;;3.90;3.50;;;;;;;27.48;90.03;96587.72;4976820;28;20396;-65
2022/06/22 12:10:55;;;;;;;5.37;4.50;;;;;;;27.70;99.45;96586.94;4975609;28;21337;-66
2022/06/22 12:13:35;;;;;;;4.43;4.10;;;;;;;27.39;95.26;96584.94;5033384;28;20283;-63
2022/06/22 12:16:16;;;;;;;5.00;4.50;;;;;;;26.91;100.00;96583.56;5041136;28;20546;-65
2022/06/22 12:18:54;;;;;;;5.53;4.97;;;;;;;26.76;100.00;96585.47;5033783;28;20203;-66
2022/06/22 12:21:38;;;;;;;5.00;4.50;;;;;;;27.26;100.00;96586.59;4993909;28;20442;-66
2022/06/22 12:24:10;;;;;;;5.17;4.03;;;;;;;26.88;100.00;96584.97;5041376;28;20289;-65
2022/06/22 12:26:51;;;;;;;5.63;5.03;;;;;;;26.46;100.00;96578.75;5044416;28;20243;-66
2022/06/22 12:29:49;;;;;;;4.17;3.97;;;;;;;25.77;100.00;96580.25;5043369;28;20278;-67
2022/06/22 12:32:20;;;;;;;5.00;4.57;;;;;;;25.87;100.00;96585.50;5041805;28;20221;-66
2022/06/22 12:35:04;;;;;;;5.23;4.60;;;;;;;25.32;100.00;96573.34;5039334;28;20228;-66
2022/06/22 12:37:36;;;;;;;5.60;5.20;;;;;;;25.98;100.00;96573.38;4998412;28;20299;-65